Jennings, Missouri
Current Conditions -  °F | °C
As of 5:51 PM on Saturday 25 Oct 2014 (Local Time) from KSTL Reporting Station
Clear Clear  
Wind Chill: 76°   Ceiling: Unl
Heat Index: 76°   Visibility: 10mi
Dew Point: 55°   Wind: 3mph
Humidity: 48%   Direction: 350°N
Pressure: 30.01"   Gusts: NA
Location:  38.72°N, 90.25°W
Report Text: KSTL 252251Z 35003KT 10SM CLR 24/13 A3001 RMK AO2 SLP156 T02440128
Loading
Personal Weather Stations






























Interactive Weather Map
Tropical Storm Tracking
New forecast layout! Learn more

10-Day Weather Forecast

Advertisements
Track Severe Weather on mobile